Time,TemperatureF,DewpointF,PressureIn,WindDirection,WindDirectionDegrees,WindSpeedMPH,WindSpeedGustMPH,Humidity,HourlyPrecipIn,Conditions,Clouds,dailyrainin,SoftwareType,DateUTC
2013-02-18 00:10:00,-999.0,-99.9,30.18,North,-999,-999.0,-999.0,-999,0.00,,,0.00,weatherlink.com 1.10,2013-02-18 05:10:00,
2013-02-18 00:25:00,-999.0,-99.9,30.18,North,-999,-999.0,-999.0,-999,0.00,,,0.00,weatherlink.com 1.10,2013-02-18 05:25:00,
2013-02-18 00:40:00,-999.0,-99.9,30.17,North,-999,-999.0,-999.0,-999,0.00,,,0.00,weatherlink.com 1.10,2013-02-18 05:40:00,
2013-02-18 00:55:00,-999.0,-99.9,30.17,North,-999,-999.0,-999.0,-999,0.00,,,0.00,weatherlink.com 1.10,2013-02-18 05:55:00,
2013-02-18 01:10:00,-999.0,-99.9,30.17,North,-999,-999.0,-999.0,-999,0.00,,,0.00,weatherlink.com 1.10,2013-02-18 06:10:00,
2013-02-18 01:25:00,-999.0,-99.9,30.16,North,-999,-999.0,-999.0,-999,0.00,,,0.00,weatherlink.com 1.10,2013-02-18 06:25:00,
2013-02-18 01:40:00,-999.0,-99.9,30.16,North,-999,-999.0,-999.0,-999,0.00,,,0.00,weatherlink.com 1.10,2013-02-18 06:40:00,
2013-02-18 01:55:00,-999.0,-99.9,30.16,North,-999,-999.0,-999.0,-999,0.00,,,0.00,weatherlink.com 1.10,2013-02-18 06:55:00,
2013-02-18 02:10:00,-999.0,-99.9,30.16,North,-999,-999.0,-999.0,-999,0.00,,,0.00,weatherlink.com 1.10,2013-02-18 07:10:00,
2013-02-18 02:26:00,-999.0,-99.9,30.15,North,-999,-999.0,-999.0,-999,0.00,,,0.00,weatherlink.com 1.10,2013-02-18 07:26:00,
2013-02-18 02:41:00,-999.0,-99.9,30.15,North,-999,-999.0,-999.0,-999,0.00,,,0.00,weatherlink.com 1.10,2013-02-18 07:41:00,
2013-02-18 02:56:00,-999.0,-99.9,30.14,North,-999,-999.0,-999.0,-999,0.00,,,0.00,weatherlink.com 1.10,2013-02-18 07:56:00,
2013-02-18 03:11:00,-999.0,-99.9,30.14,North,-999,-999.0,-999.0,-999,0.00,,,0.00,weatherlink.com 1.10,2013-02-18 08:11:00,
2013-02-18 03:26:00,-999.0,-99.9,30.14,North,-999,-999.0,-999.0,-999,0.00,,,0.00,weatherlink.com 1.10,2013-02-18 08:26:00,
2013-02-18 03:41:00,-999.0,-99.9,30.12,North,-999,-999.0,-999.0,-999,0.00,,,0.00,weatherlink.com 1.10,2013-02-18 08:41:00,
2013-02-18 03:56:00,-999.0,-99.9,30.12,North,-999,-999.0,-999.0,-999,0.00,,,0.00,weatherlink.com 1.10,2013-02-18 08:56:00,
2013-02-18 04:11:00,-999.0,-99.9,30.12,North,-999,-999.0,-999.0,-999,0.00,,,0.00,weatherlink.com 1.10,2013-02-18 09:11:00,
2013-02-18 04:26:00,-999.0,-99.9,30.11,North,-999,-999.0,-999.0,-999,0.00,,,0.00,weatherlink.com 1.10,2013-02-18 09:26:00,
2013-02-18 04:41:00,-999.0,-99.9,30.11,North,-999,-999.0,-999.0,-999,0.00,,,0.00,weatherlink.com 1.10,2013-02-18 09:41:00,
2013-02-18 04:56:00,-999.0,-99.9,30.11,North,-999,-999.0,-999.0,-999,0.00,,,0.00,weatherlink.com 1.10,2013-02-18 09:56:00,
2013-02-18 05:12:00,-999.0,-99.9,30.11,North,-999,-999.0,-999.0,-999,0.00,,,0.00,weatherlink.com 1.10,2013-02-18 10:12:00,
2013-02-18 05:26:00,-999.0,-99.9,30.11,North,-999,-999.0,-999.0,-999,0.00,,,0.00,weatherlink.com 1.10,2013-02-18 10:26:00,
2013-02-18 05:42:00,-999.0,-99.9,30.11,North,-999,-999.0,-999.0,-999,0.00,,,0.00,weatherlink.com 1.10,2013-02-18 10:42:00,
2013-02-18 05:57:00,-999.0,-99.9,30.11,North,-999,-999.0,-999.0,-999,0.00,,,0.00,weatherlink.com 1.10,2013-02-18 10:57:00,
2013-02-18 06:12:00,-999.0,-99.9,30.11,North,-999,-999.0,-999.0,-999,0.00,,,0.00,weatherlink.com 1.10,2013-02-18 11:12:00,
2013-02-18 06:27:00,-999.0,-99.9,30.10,North,-999,-999.0,-999.0,-999,0.00,,,0.00,weatherlink.com 1.10,2013-02-18 11:27:00,
2013-02-18 06:42:00,-999.0,-99.9,30.10,North,-999,-999.0,-999.0,-999,0.00,,,0.00,weatherlink.com 1.10,2013-02-18 11:42:00,
2013-02-18 06:57:00,-999.0,-99.9,30.10,North,-999,-999.0,-999.0,-999,0.00,,,0.00,weatherlink.com 1.10,2013-02-18 11:57:00,
2013-02-18 07:12:00,-999.0,-99.9,30.10,North,-999,-999.0,-999.0,-999,0.00,,,0.00,weatherlink.com 1.10,2013-02-18 12:12:00,
2013-02-18 07:42:00,-999.0,-99.9,30.10,North,-999,-999.0,-999.0,-999,0.00,,,0.00,weatherlink.com 1.10,2013-02-18 12:42:00,
2013-02-18 07:57:00,-999.0,-99.9,30.10,North,-999,-999.0,-999.0,-999,0.00,,,0.00,weatherlink.com 1.10,2013-02-18 12:57:00,
2013-02-18 08:13:00,-999.0,-99.9,30.10,North,-999,-999.0,-999.0,-999,0.00,,,0.00,weatherlink.com 1.10,2013-02-18 13:13:00,
2013-02-18 08:27:00,35.2,25.0,30.10,North,360,7.0,11.0,67,0.00,,,0.00,weatherlink.com 1.10,2013-02-18 13:27:00,
2013-02-18 08:42:00,36.1,26.0,30.10,North,360,5.0,10.0,67,0.00,,,0.00,weatherlink.com 1.10,2013-02-18 13:42:00,
2013-02-18 08:58:00,37.7,27.0,30.11,North,360,9.0,14.0,65,0.00,,,0.00,weatherlink.com 1.10,2013-02-18 13:58:00,
2013-02-18 09:28:00,41.6,29.0,30.10,North,360,15.0,18.0,62,0.00,,,0.00,weatherlink.com 1.10,2013-02-18 14:28:00,
2013-02-18 09:43:00,43.7,32.0,30.09,North,360,10.0,15.0,63,0.00,,,0.00,weatherlink.com 1.10,2013-02-18 14:43:00,
2013-02-18 09:58:00,46.0,34.0,30.09,North,360,5.0,20.0,63,0.00,,,0.00,weatherlink.com 1.10,2013-02-18 14:58:00,
2013-02-18 10:13:00,47.2,35.0,30.09,North,360,18.0,24.0,64,0.00,,,0.00,weatherlink.com 1.10,2013-02-18 15:13:00,
2013-02-18 10:28:00,47.8,36.0,30.08,North,360,7.0,15.0,64,0.00,,,0.00,weatherlink.com 1.10,2013-02-18 15:28:00,
2013-02-18 10:43:00,48.8,37.0,30.08,North,360,13.0,22.0,64,0.00,,,0.00,weatherlink.com 1.10,2013-02-18 15:43:00,
2013-02-18 10:58:00,50.4,38.0,30.07,North,360,11.0,20.0,63,0.00,,,0.00,weatherlink.com 1.10,2013-02-18 15:58:00,
2013-02-18 11:13:00,51.9,39.0,30.06,North,360,11.0,21.0,62,0.00,,,0.00,weatherlink.com 1.10,2013-02-18 16:13:00,
2013-02-18 11:28:00,53.4,40.0,30.05,North,360,15.0,25.0,62,0.00,,,0.00,weatherlink.com 1.10,2013-02-18 16:28:00,
2013-02-18 11:43:00,54.2,41.0,30.04,North,360,13.0,21.0,61,0.00,,,0.00,weatherlink.com 1.10,2013-02-18 16:43:00,
2013-02-18 11:58:00,55.0,42.0,30.03,North,360,17.0,24.0,61,0.00,,,0.00,weatherlink.com 1.10,2013-02-18 16:58:00,
2013-02-18 12:13:00,56.0,42.0,30.02,North,360,12.0,25.0,59,0.00,,,0.00,weatherlink.com 1.10,2013-02-18 17:13:00,
2013-02-18 12:29:00,56.8,41.0,30.02,North,360,19.0,28.0,57,0.00,,,0.00,weatherlink.com 1.10,2013-02-18 17:29:00,
2013-02-18 12:43:00,56.7,41.0,30.01,North,360,9.0,21.0,57,0.00,,,0.00,weatherlink.com 1.10,2013-02-18 17:43:00,
2013-02-18 12:58:00,56.8,41.0,30.00,North,360,13.0,29.0,56,0.00,,,0.00,weatherlink.com 1.10,2013-02-18 17:58:00,
2013-02-18 13:13:00,57.7,41.0,29.99,North,360,12.0,22.0,55,0.00,,,0.00,weatherlink.com 1.10,2013-02-18 18:13:00,
2013-02-18 13:29:00,57.8,41.0,29.98,North,360,11.0,23.0,54,0.00,,,0.00,weatherlink.com 1.10,2013-02-18 18:29:00,
2013-02-18 13:44:00,58.1,40.0,29.97,North,360,19.0,25.0,52,0.00,,,0.00,weatherlink.com 1.10,2013-02-18 18:44:00,
2013-02-18 13:59:00,58.2,40.0,29.97,North,360,9.0,29.0,51,0.00,,,0.00,weatherlink.com 1.10,2013-02-18 18:59:00,
2013-02-18 14:14:00,58.9,41.0,29.95,North,360,16.0,27.0,51,0.00,,,0.00,weatherlink.com 1.10,2013-02-18 19:14:00,
2013-02-18 14:29:00,59.0,41.0,29.94,North,360,7.0,26.0,51,0.00,,,0.00,weatherlink.com 1.10,2013-02-18 19:29:00,
2013-02-18 14:44:00,59.1,40.0,29.93,North,360,18.0,25.0,50,0.00,,,0.00,weatherlink.com 1.10,2013-02-18 19:44:00,
2013-02-18 14:59:00,59.8,40.0,29.93,North,360,10.0,23.0,49,0.00,,,0.00,weatherlink.com 1.10,2013-02-18 19:59:00,
2013-02-18 15:14:00,60.5,40.0,29.92,North,360,10.0,24.0,48,0.00,,,0.00,weatherlink.com 1.10,2013-02-18 20:14:00,
2013-02-18 15:29:00,59.6,39.0,29.90,North,360,13.0,33.0,47,0.00,,,0.00,weatherlink.com 1.10,2013-02-18 20:29:00,
2013-02-18 15:44:00,59.7,39.0,29.89,North,360,1.0,24.0,47,0.00,,,0.00,weatherlink.com 1.10,2013-02-18 20:44:00,
2013-02-18 15:59:00,60.2,39.0,29.88,North,360,22.0,28.0,46,0.00,,,0.00,weatherlink.com 1.10,2013-02-18 20:59:00,
2013-02-18 16:14:00,60.6,40.0,29.88,North,360,15.0,25.0,46,0.00,,,0.00,weatherlink.com 1.10,2013-02-18 21:14:00,
2013-02-18 16:29:00,60.2,39.0,29.87,North,360,14.0,28.0,45,0.00,,,0.00,weatherlink.com 1.10,2013-02-18 21:29:00,
2013-02-18 16:44:00,59.0,38.0,29.87,North,360,15.0,31.0,46,0.00,,,0.00,weatherlink.com 1.10,2013-02-18 21:44:00,
2013-02-18 16:59:00,59.0,39.0,29.86,North,360,18.0,34.0,47,0.00,,,0.00,weatherlink.com 1.10,2013-02-18 21:59:00,
2013-02-18 17:14:00,58.6,38.0,29.86,North,360,12.0,33.0,47,0.00,,,0.00,weatherlink.com 1.10,2013-02-18 22:14:00,
2013-02-18 17:29:00,58.4,38.0,29.84,North,360,26.0,33.0,47,0.00,,,0.00,weatherlink.com 1.10,2013-02-18 22:29:00,
2013-02-18 17:45:00,-999.0,-99.9,29.84,North,-999,-999.0,-999.0,-999,0.00,,,0.00,weatherlink.com 1.10,2013-02-18 22:45:00,
2013-02-18 17:59:00,-999.0,-99.9,29.84,North,-999,-999.0,-999.0,-999,0.00,,,0.00,weatherlink.com 1.10,2013-02-18 22:59:00,
2013-02-18 18:14:00,-999.0,-99.9,29.84,North,-999,-999.0,-999.0,-999,0.00,,,0.00,weatherlink.com 1.10,2013-02-18 23:14:00,
2013-02-18 18:34:00,-999.0,-99.9,29.83,North,-999,-999.0,-999.0,-999,0.00,,,0.00,weatherlink.com 1.10,2013-02-18 23:34:00,
2013-02-18 18:45:00,-999.0,-99.9,29.83,North,-999,-999.0,-999.0,-999,0.00,,,0.00,weatherlink.com 1.10,2013-02-18 23:45:00,
2013-02-18 19:00:00,-999.0,-99.9,29.84,North,-999,-999.0,-999.0,-999,0.00,,,0.00,weatherlink.com 1.10,2013-02-19 00:00:00,
2013-02-18 19:17:00,-999.0,-99.9,29.83,North,-999,-999.0,-999.0,-999,0.00,,,0.00,weatherlink.com 1.10,2013-02-19 00:17:00,
2013-02-18 19:30:00,-999.0,-99.9,29.83,North,-999,-999.0,-999.0,-999,0.00,,,0.00,weatherlink.com 1.10,2013-02-19 00:30:00,
2013-02-18 19:45:00,-999.0,-99.9,29.81,North,-999,-999.0,-999.0,-999,0.00,,,0.00,weatherlink.com 1.10,2013-02-19 00:45:00,
2013-02-18 20:00:00,-999.0,-99.9,29.80,North,-999,-999.0,-999.0,-999,0.00,,,0.00,weatherlink.com 1.10,2013-02-19 01:00:00,
2013-02-18 20:15:00,-999.0,-99.9,29.78,North,-999,-999.0,-999.0,-999,0.00,,,0.00,weatherlink.com 1.10,2013-02-19 01:15:00,
2013-02-18 20:30:00,-999.0,-99.9,29.76,North,-999,-999.0,-999.0,-999,0.00,,,0.00,weatherlink.com 1.10,2013-02-19 01:30:00,
2013-02-18 20:45:00,-999.0,-99.9,29.75,North,-999,-999.0,-999.0,-999,0.00,,,0.00,weatherlink.com 1.10,2013-02-19 01:45:00,
2013-02-18 21:01:00,-999.0,-99.9,29.75,North,-999,-999.0,-999.0,-999,0.00,,,0.00,weatherlink.com 1.10,2013-02-19 02:01:00,
2013-02-18 21:16:00,-999.0,-99.9,29.77,North,-999,-999.0,-999.0,-999,0.00,,,0.00,weatherlink.com 1.10,2013-02-19 02:16:00,
2013-02-18 21:30:00,-999.0,-99.9,29.77,North,-999,-999.0,-999.0,-999,0.00,,,0.00,weatherlink.com 1.10,2013-02-19 02:30:00,
2013-02-18 21:46:00,-999.0,-99.9,29.77,North,-999,-999.0,-999.0,-999,0.00,,,0.00,weatherlink.com 1.10,2013-02-19 02:46:00,
2013-02-18 22:01:00,-999.0,-99.9,29.77,North,-999,-999.0,-999.0,-999,0.00,,,0.00,weatherlink.com 1.10,2013-02-19 03:01:00,
2013-02-18 22:16:00,-999.0,-99.9,29.77,North,-999,-999.0,-999.0,-999,0.00,,,0.00,weatherlink.com 1.10,2013-02-19 03:16:00,
2013-02-18 22:31:00,-999.0,-99.9,29.74,North,-999,-999.0,-999.0,-999,0.00,,,0.00,weatherlink.com 1.10,2013-02-19 03:31:00,
2013-02-18 22:46:00,-999.0,-99.9,29.75,North,-999,-999.0,-999.0,-999,0.00,,,0.00,weatherlink.com 1.10,2013-02-19 03:46:00,
2013-02-18 23:01:00,-999.0,-99.9,29.76,North,-999,-999.0,-999.0,-999,0.00,,,0.00,weatherlink.com 1.10,2013-02-19 04:01:00,
2013-02-18 23:16:00,-999.0,-99.9,29.75,North,-999,-999.0,-999.0,-999,0.00,,,0.00,weatherlink.com 1.10,2013-02-19 04:16:00,
2013-02-18 23:31:00,-999.0,-99.9,29.75,North,-999,-999.0,-999.0,-999,0.00,,,0.00,weatherlink.com 1.10,2013-02-19 04:31:00,
2013-02-18 23:46:00,-999.0,-99.9,29.77,North,-999,-999.0,-999.0,-999,0.00,,,0.00,weatherlink.com 1.10,2013-02-19 04:46:00,